createdAt,value
2019-04-06T00:00:24.360Z,0.00
2019-04-06T00:01:24.377Z,0.00
2019-04-06T00:02:24.395Z,0.00
2019-04-06T00:03:24.411Z,0.00
2019-04-06T00:04:24.429Z,0.00
2019-04-06T00:05:24.447Z,0.00
2019-04-06T00:06:24.464Z,0.00
2019-04-06T00:07:24.481Z,0.00
2019-04-06T00:08:24.500Z,0.00
2019-04-06T00:09:24.515Z,0.00
2019-04-06T00:10:24.534Z,0.00
2019-04-06T00:11:24.551Z,0.00
2019-04-06T00:12:24.566Z,0.00
2019-04-06T00:13:24.585Z,0.00
2019-04-06T00:14:24.606Z,0.00
2019-04-06T00:15:24.619Z,0.00
2019-04-06T00:16:24.637Z,0.00
2019-04-06T00:17:24.655Z,0.00
2019-04-06T00:18:24.673Z,0.00
2019-04-06T00:19:24.690Z,0.00
2019-04-06T00:20:24.707Z,0.00
2019-04-06T00:21:24.729Z,0.00
2019-04-06T00:22:24.783Z,0.00
2019-04-06T00:23:24.835Z,0.00
2019-04-06T00:24:24.779Z,0.00
2019-04-06T00:25:24.790Z,0.00
2019-04-06T00:26:24.821Z,0.00
2019-04-06T00:27:24.856Z,0.00
2019-04-06T00:28:24.843Z,0.00
2019-04-06T00:29:24.861Z,0.00
2019-04-06T00:30:24.878Z,0.00
2019-04-06T00:31:24.899Z,0.00
2019-04-06T00:32:24.911Z,0.00
2019-04-06T00:33:24.951Z,0.00
2019-04-06T00:34:24.945Z,0.00
2019-04-06T00:35:24.962Z,0.00
2019-04-06T00:36:24.985Z,0.00
2019-04-06T00:37:24.996Z,0.00
2019-04-06T00:38:25.021Z,0.00
2019-04-06T00:39:25.033Z,0.00
2019-04-06T00:40:25.049Z,0.00
2019-04-06T00:41:25.102Z,0.00
2019-04-06T00:42:25.083Z,0.00
2019-04-06T00:43:25.100Z,0.00
2019-04-06T00:44:25.119Z,0.00
2019-04-06T00:45:25.135Z,0.00
2019-04-06T00:46:25.152Z,0.00
2019-04-06T00:47:25.168Z,0.00
2019-04-06T00:48:25.188Z,0.00
2019-04-06T00:49:25.201Z,0.00
2019-04-06T00:50:25.221Z,0.00
2019-04-06T00:51:25.243Z,0.00
2019-04-06T00:52:25.253Z,0.00
2019-04-06T00:53:25.271Z,0.00
2019-04-06T00:54:25.289Z,0.00
2019-04-06T00:55:25.302Z,0.00
2019-04-06T00:56:25.322Z,0.00
2019-04-06T00:57:25.341Z,0.00
2019-04-06T00:58:25.355Z,0.00
2019-04-06T00:59:25.375Z,0.00
2019-04-06T01:00:25.389Z,0.00
2019-04-06T01:01:25.407Z,0.00
2019-04-06T01:02:25.425Z,0.00
2019-04-06T01:03:25.449Z,0.00
2019-04-06T01:04:25.491Z,0.00
2019-04-06T01:05:25.476Z,0.00
2019-04-06T01:06:25.501Z,0.00
2019-04-06T01:07:25.510Z,0.00
2019-04-06T01:08:25.528Z,0.00
2019-04-06T01:09:25.545Z,0.00
2019-04-06T01:10:25.565Z,0.00
2019-04-06T01:11:25.581Z,0.00
2019-04-06T01:12:25.597Z,0.00
2019-04-06T01:13:25.613Z,0.00
2019-04-06T01:14:25.638Z,0.00
2019-04-06T01:15:25.652Z,0.00
2019-04-06T01:16:25.667Z,0.00
2019-04-06T01:17:25.694Z,0.00
2019-04-06T01:18:25.786Z,0.00
2019-04-06T01:19:25.785Z,0.00
2019-04-06T01:20:25.774Z,0.00
2019-04-06T01:21:25.770Z,0.00
2019-04-06T01:22:25.839Z,0.00
2019-04-06T01:23:25.867Z,0.00
2019-04-06T01:24:25.862Z,0.00
2019-04-06T01:25:25.838Z,0.00
2019-04-06T01:26:25.849Z,0.00
2019-04-06T01:27:25.858Z,0.00
2019-04-06T01:28:25.872Z,0.00
2019-04-06T01:29:25.901Z,0.00
2019-04-06T01:30:25.912Z,0.00
2019-04-06T01:31:25.930Z,0.00
2019-04-06T01:32:25.955Z,0.00
2019-04-06T01:33:25.961Z,0.00
2019-04-06T01:34:25.984Z,0.00
2019-04-06T01:35:26.000Z,0.00
2019-04-06T01:36:26.040Z,0.00
2019-04-06T01:37:26.032Z,0.00
2019-04-06T01:38:26.051Z,0.00
2019-04-06T01:39:26.066Z,0.00
2019-04-06T01:40:26.084Z,0.00
2019-04-06T01:41:26.101Z,0.00
2019-04-06T01:42:26.120Z,0.00
2019-04-06T01:43:26.137Z,0.00
2019-04-06T01:44:26.153Z,0.00
2019-04-06T01:45:26.171Z,0.00
2019-04-06T01:46:26.207Z,0.00
2019-04-06T01:47:26.207Z,0.00
2019-04-06T01:48:26.231Z,0.00
2019-04-06T01:49:26.241Z,0.00
2019-04-06T01:50:26.263Z,0.00
2019-04-06T01:51:26.276Z,0.00
2019-04-06T01:52:26.296Z,0.00
2019-04-06T01:53:26.311Z,0.00
2019-04-06T01:54:26.328Z,0.00
2019-04-06T01:55:26.345Z,0.00
2019-04-06T01:56:26.366Z,0.00
2019-04-06T01:57:26.380Z,0.00
2019-04-06T01:58:26.397Z,0.00
2019-04-06T01:59:26.411Z,0.00
2019-04-06T02:00:26.435Z,0.00
2019-04-06T02:01:26.450Z,0.00
2019-04-06T02:02:26.470Z,0.00
2019-04-06T02:03:26.488Z,0.00
2019-04-06T02:04:26.501Z,0.00
2019-04-06T02:05:26.521Z,0.00
2019-04-06T02:06:26.537Z,0.00
2019-04-06T02:07:26.553Z,0.00
2019-04-06T02:08:26.576Z,0.00
2019-04-06T02:09:26.589Z,0.00
2019-04-06T02:10:26.606Z,0.00
2019-04-06T02:11:26.621Z,0.00
2019-04-06T02:12:26.650Z,0.00
2019-04-06T02:13:26.657Z,0.00
2019-04-06T02:14:26.674Z,0.00
2019-04-06T02:15:26.691Z,0.00
2019-04-06T02:16:26.741Z,0.00
2019-04-06T02:17:26.728Z,0.00
2019-04-06T02:18:26.745Z,0.00
2019-04-06T02:19:26.759Z,0.00
2019-04-06T02:20:26.781Z,0.00
2019-04-06T02:21:26.795Z,0.00
2019-04-06T02:22:26.811Z,0.00
2019-04-06T02:23:26.843Z,0.00
2019-04-06T02:24:26.845Z,0.00
2019-04-06T02:25:26.860Z,0.00
2019-04-06T02:26:30.664Z,0.00
2019-04-06T02:27:26.897Z,0.00
2019-04-06T02:28:26.913Z,0.00
2019-04-06T02:29:26.935Z,0.00
2019-04-06T02:30:26.969Z,0.00
2019-04-06T02:31:26.964Z,0.00
2019-04-06T02:32:27.012Z,0.00
2019-04-06T02:33:27.111Z,0.00
2019-04-06T02:34:27.018Z,0.00
2019-04-06T02:35:27.103Z,0.00
2019-04-06T02:36:27.052Z,0.00
2019-04-06T02:37:27.067Z,0.00
2019-04-06T02:38:27.083Z,0.00
2019-04-06T02:39:27.245Z,0.00
2019-04-06T02:40:27.122Z,0.00
2019-04-06T02:41:27.134Z,0.00
2019-04-06T02:42:27.275Z,0.00
2019-04-06T02:43:27.166Z,0.00
2019-04-06T02:44:27.284Z,0.00
2019-04-06T02:45:27.203Z,0.00
2019-04-06T02:46:30.313Z,0.00
2019-04-06T02:47:27.407Z,0.00
2019-04-06T02:48:27.253Z,0.00
2019-04-06T02:49:27.276Z,0.00
2019-04-06T02:50:27.286Z,0.00
2019-04-06T02:51:27.304Z,0.00
2019-04-06T02:52:27.321Z,0.00
2019-04-06T02:53:27.337Z,0.00
2019-04-06T02:54:27.498Z,0.00
2019-04-06T02:55:27.370Z,0.00
2019-04-06T02:56:27.385Z,0.00
2019-04-06T02:57:27.401Z,0.00
2019-04-06T02:58:27.417Z,0.00
2019-04-06T02:59:27.522Z,0.00
2019-04-06T03:00:27.633Z,0.00
2019-04-06T03:01:27.509Z,0.00
2019-04-06T03:02:27.487Z,0.00
2019-04-06T03:03:27.504Z,0.00
2019-04-06T03:04:27.815Z,0.00
2019-04-06T03:05:27.535Z,0.00
2019-04-06T03:06:27.557Z,0.00
2019-04-06T03:07:27.654Z,0.00
2019-04-06T03:08:27.636Z,0.00
2019-04-06T03:09:27.647Z,0.00
2019-04-06T03:10:27.812Z,0.00
2019-04-06T03:11:27.708Z,0.00
2019-04-06T03:12:27.705Z,0.00
2019-04-06T03:13:27.717Z,0.00
2019-04-06T03:14:27.703Z,0.00
2019-04-06T03:15:27.733Z,0.00
2019-04-06T03:16:27.732Z,0.00
2019-04-06T03:17:27.917Z,0.00
2019-04-06T03:18:27.904Z,0.00
2019-04-06T03:19:27.766Z,0.00
2019-04-06T03:20:27.785Z,0.00
2019-04-06T03:21:27.801Z,0.00
2019-04-06T03:22:27.816Z,0.00
2019-04-06T03:23:27.833Z,0.00
2019-04-06T03:24:27.851Z,0.00
2019-04-06T03:25:27.941Z,0.00
2019-04-06T03:26:27.886Z,0.00
2019-04-06T03:27:27.899Z,0.00
2019-04-06T03:28:27.917Z,0.00
2019-04-06T03:29:27.934Z,0.00
2019-04-06T03:30:27.950Z,0.00
2019-04-06T03:31:28.256Z,0.00
2019-04-06T03:32:27.991Z,0.00
2019-04-06T03:33:28.087Z,0.00
2019-04-06T03:34:28.029Z,0.00
2019-04-06T03:35:28.031Z,0.00
2019-04-06T03:36:28.049Z,0.00
2019-04-06T03:37:28.066Z,0.00
2019-04-06T03:38:28.112Z,0.00
2019-04-06T03:39:28.098Z,0.00
2019-04-06T03:40:28.113Z,0.00
2019-04-06T03:41:28.133Z,0.00
2019-04-06T03:42:28.155Z,0.00
2019-04-06T03:43:28.179Z,0.00
2019-04-06T03:44:28.192Z,0.00
2019-04-06T03:45:28.278Z,0.00
2019-04-06T03:46:28.213Z,0.00
2019-04-06T03:47:28.398Z,0.00
2019-04-06T03:48:28.243Z,0.00
2019-04-06T03:49:28.493Z,0.00
2019-04-06T03:50:28.288Z,0.00
2019-04-06T03:51:28.389Z,0.00
2019-04-06T03:52:28.395Z,0.00
2019-04-06T03:53:28.329Z,0.00
2019-04-06T03:54:28.351Z,0.00
2019-04-06T03:55:28.362Z,0.00
2019-04-06T03:56:28.375Z,4.00
2019-04-06T03:57:28.653Z,4.00
2019-04-06T03:58:28.408Z,0.00
2019-04-06T03:59:28.553Z,4.00
2019-04-06T04:00:28.447Z,4.00
2019-04-06T04:01:28.549Z,4.00
2019-04-06T04:02:28.480Z,4.00
2019-04-06T04:03:28.486Z,4.00
2019-04-06T04:04:28.505Z,8.00
2019-04-06T04:05:28.521Z,8.00
2019-04-06T04:06:28.538Z,8.00
2019-04-06T04:07:28.558Z,12.00
2019-04-06T04:08:28.745Z,12.00
2019-04-06T04:09:28.587Z,16.00
2019-04-06T04:10:28.772Z,20.00
2019-04-06T04:11:28.621Z,20.00
2019-04-06T04:12:28.634Z,24.00
2019-04-06T04:13:29.033Z,28.00
2019-04-06T04:14:28.667Z,36.00
2019-04-06T04:15:28.680Z,40.00
2019-04-06T04:16:28.750Z,48.00
2019-04-06T04:17:28.718Z,52.00
2019-04-06T04:18:28.735Z,64.00
2019-04-06T04:19:28.803Z,72.00
2019-04-06T04:20:28.760Z,84.00
2019-04-06T04:21:28.780Z,96.00
2019-04-06T04:22:28.798Z,104.00
2019-04-06T04:23:28.812Z,116.00
2019-04-06T04:24:28.832Z,128.00
2019-04-06T04:25:28.848Z,144.00
2019-04-06T04:26:28.879Z,156.00
2019-04-06T04:27:30.635Z,172.00
2019-04-06T04:28:28.894Z,188.00
2019-04-06T04:29:28.912Z,208.00
2019-04-06T04:30:33.143Z,224.00
2019-04-06T04:31:28.974Z,244.00
2019-04-06T04:32:28.963Z,260.00
2019-04-06T04:33:28.977Z,276.00
2019-04-06T04:34:28.993Z,296.00
2019-04-06T04:35:29.156Z,316.00
2019-04-06T04:36:29.059Z,344.00
2019-04-06T04:37:29.042Z,368.00
2019-04-06T04:38:29.057Z,404.00
2019-04-06T04:39:29.237Z,436.00
2019-04-06T04:40:29.091Z,472.00
2019-04-06T04:41:29.105Z,508.00
2019-04-06T04:42:29.123Z,552.00
2019-04-06T04:43:29.139Z,596.00
2019-04-06T04:44:29.343Z,652.00
2019-04-06T04:45:29.174Z,708.00
2019-04-06T04:46:29.190Z,768.00
2019-04-06T04:47:29.206Z,836.00
2019-04-06T04:48:29.220Z,904.00
2019-04-06T04:49:29.328Z,980.00
2019-04-06T04:50:29.256Z,1056.00
2019-04-06T04:51:29.271Z,1132.00
2019-04-06T04:52:29.287Z,1212.00
2019-04-06T04:53:29.346Z,1296.00
2019-04-06T04:54:29.322Z,1384.00
2019-04-06T04:55:29.339Z,1480.00
2019-04-06T04:56:29.359Z,1568.00
2019-04-06T04:57:39.603Z,1652.00
2019-04-06T04:58:29.387Z,1720.00
2019-04-06T04:59:29.404Z,1780.00
2019-04-06T05:00:29.445Z,1848.00
2019-04-06T05:01:29.523Z,1920.00
2019-04-06T05:02:29.502Z,1988.00
2019-04-06T05:03:29.499Z,2060.00
2019-04-06T05:04:29.600Z,2116.00
2019-04-06T05:05:29.561Z,2164.00
2019-04-06T05:06:29.570Z,2204.00
2019-04-06T05:07:29.564Z,2240.00
2019-04-06T05:08:29.556Z,2288.00
2019-04-06T05:09:29.576Z,2340.00
2019-04-06T05:10:29.591Z,2376.00
2019-04-06T05:11:29.613Z,2420.00
2019-04-06T05:12:29.625Z,2460.00
2019-04-06T05:13:29.642Z,2508.00
2019-04-06T05:14:29.683Z,2592.00
2019-04-06T05:15:29.681Z,2700.00
2019-04-06T05:16:29.691Z,2832.00
2019-04-06T05:17:29.827Z,2980.00
2019-04-06T05:18:29.728Z,3132.00
2019-04-06T05:19:29.744Z,3268.00
2019-04-06T05:20:29.761Z,3396.00
2019-04-06T05:21:29.781Z,3520.00
2019-04-06T05:22:29.801Z,3652.00
2019-04-06T05:23:29.956Z,3792.00
2019-04-06T05:24:29.831Z,3932.00
2019-04-06T05:25:29.848Z,4064.00
2019-04-06T05:26:37.466Z,4180.00
2019-04-06T05:27:29.885Z,4256.00
2019-04-06T05:28:29.944Z,4304.00
2019-04-06T05:29:29.933Z,4348.00
2019-04-06T05:30:29.963Z,4424.00
2019-04-06T05:31:29.953Z,4528.00
2019-04-06T05:32:29.969Z,4660.00
2019-04-06T05:33:29.994Z,4828.00
2019-04-06T05:34:30.007Z,5012.00
2019-04-06T05:35:30.020Z,5208.00
2019-04-06T05:36:30.039Z,5400.00
2019-04-06T05:37:30.057Z,5636.00
2019-04-06T05:38:30.075Z,5896.00
2019-04-06T05:39:30.220Z,6176.00
2019-04-06T05:40:30.109Z,6420.00
2019-04-06T05:41:30.130Z,6632.00
2019-04-06T05:42:30.147Z,6780.00
2019-04-06T05:43:30.170Z,6868.00
2019-04-06T05:44:30.180Z,6928.00
2019-04-06T05:45:30.330Z,7004.00
2019-04-06T05:46:30.212Z,7128.00
2019-04-06T05:47:30.237Z,7308.00
2019-04-06T05:48:30.251Z,7456.00
2019-04-06T05:49:30.268Z,7508.00
2019-04-06T05:50:30.286Z,7464.00
2019-04-06T05:51:30.426Z,7364.00
2019-04-06T05:52:30.321Z,7228.00
2019-04-06T05:53:30.340Z,7100.00
2019-04-06T05:54:30.359Z,7004.00
2019-04-06T05:55:30.375Z,6900.00
2019-04-06T05:56:30.394Z,6836.00
2019-04-06T05:57:32.114Z,6852.00
2019-04-06T05:58:30.428Z,6908.00
2019-04-06T05:59:30.615Z,7036.00
2019-04-06T06:00:30.462Z,7160.00
2019-04-06T06:01:30.482Z,7436.00
2019-04-06T06:02:30.501Z,7716.00
2019-04-06T06:03:30.521Z,7852.00
2019-04-06T06:04:30.537Z,7884.00
2019-04-06T06:05:30.555Z,8040.00
2019-04-06T06:06:30.576Z,8224.00
2019-04-06T06:07:30.593Z,8272.00
2019-04-06T06:08:30.649Z,8212.00
2019-04-06T06:09:30.629Z,8396.00
2019-04-06T06:10:30.647Z,8772.00
2019-04-06T06:11:30.684Z,9132.00
2019-04-06T06:12:30.681Z,9556.00
2019-04-06T06:13:30.701Z,9956.00
2019-04-06T06:14:30.731Z,10356.00
2019-04-06T06:15:30.749Z,10860.00
2019-04-06T06:16:30.759Z,11084.00
2019-04-06T06:17:30.954Z,11216.00
2019-04-06T06:18:30.794Z,11392.00
2019-04-06T06:19:30.811Z,11448.00
2019-04-06T06:20:30.830Z,11348.00
2019-04-06T06:21:30.850Z,11128.00
2019-04-06T06:22:30.867Z,10912.00
2019-04-06T06:23:31.065Z,10768.00
2019-04-06T06:24:30.906Z,10608.00
2019-04-06T06:25:30.963Z,9976.00
2019-04-06T06:26:31.159Z,9668.00
2019-04-06T06:27:30.960Z,9548.00
2019-04-06T06:28:30.983Z,9468.00
2019-04-06T06:29:31.186Z,9444.00
2019-04-06T06:30:31.018Z,9500.00
2019-04-06T06:31:31.036Z,9584.00
2019-04-06T06:32:31.357Z,10216.00
2019-04-06T06:33:31.074Z,9916.00
2019-04-06T06:34:31.092Z,9472.00
2019-04-06T06:35:31.111Z,9724.00
2019-04-06T06:36:31.130Z,9712.00
2019-04-06T06:37:31.150Z,9552.00
2019-04-06T06:38:31.201Z,9568.00
2019-04-06T06:39:31.187Z,9608.00
2019-04-06T06:40:31.205Z,9708.00
2019-04-06T06:41:31.226Z,9916.00
2019-04-06T06:42:31.243Z,9868.00
2019-04-06T06:43:31.265Z,9996.00
2019-04-06T06:44:31.357Z,10144.00
2019-04-06T06:45:31.373Z,10164.00
2019-04-06T06:46:31.374Z,10152.00
2019-04-06T06:47:31.378Z,10164.00
2019-04-06T06:48:31.445Z,10276.00
2019-04-06T06:49:31.439Z,10292.00
2019-04-06T06:50:31.448Z,10312.00
2019-04-06T06:51:31.654Z,10596.00
2019-04-06T06:52:31.436Z,10932.00
2019-04-06T06:53:31.455Z,11016.00
2019-04-06T06:54:31.480Z,11468.00
2019-04-06T06:55:31.493Z,12740.00
2019-04-06T06:56:31.516Z,15332.00
2019-04-06T06:57:31.742Z,16176.00
2019-04-06T06:58:31.553Z,17184.00
2019-04-06T06:59:31.572Z,17504.00
2019-04-06T07:00:31.699Z,18240.00
2019-04-06T07:01:31.611Z,19424.00
2019-04-06T07:02:31.631Z,18688.00
2019-04-06T07:03:31.712Z,17760.00
2019-04-06T07:04:31.678Z,16832.00
2019-04-06T07:05:31.706Z,16088.00
2019-04-06T07:06:31.706Z,16704.00
2019-04-06T07:07:31.943Z,17100.00
2019-04-06T07:08:31.746Z,16112.00
2019-04-06T07:09:31.993Z,16248.00
2019-04-06T07:10:32.013Z,16484.00
2019-04-06T07:11:31.971Z,16180.00
2019-04-06T07:12:31.826Z,16376.00
2019-04-06T07:13:32.049Z,15732.00
2019-04-06T07:14:31.869Z,15612.00
2019-04-06T07:15:31.887Z,14832.00
2019-04-06T07:16:31.906Z,15444.00
2019-04-06T07:17:32.076Z,17108.00
2019-04-06T07:18:31.947Z,18016.00
2019-04-06T07:19:31.966Z,18336.00
2019-04-06T07:20:31.989Z,18112.00
2019-04-06T07:21:32.006Z,19008.00
2019-04-06T07:22:32.212Z,18816.00
2019-04-06T07:23:32.050Z,19712.00
2019-04-06T07:24:32.070Z,21536.00
2019-04-06T07:25:32.089Z,20352.00
2019-04-06T07:26:32.113Z,16544.00
2019-04-06T07:27:32.127Z,17540.00
2019-04-06T07:28:38.533Z,19936.00
2019-04-06T07:29:32.241Z,19808.00
2019-04-06T07:30:32.254Z,19648.00
2019-04-06T07:31:32.211Z,19712.00
2019-04-06T07:32:32.231Z,20320.00
2019-04-06T07:33:32.253Z,23776.00
2019-04-06T07:34:32.271Z,28256.00
2019-04-06T07:35:32.297Z,30016.00
2019-04-06T07:36:32.315Z,31040.00
2019-04-06T07:37:32.335Z,32352.00
2019-04-06T07:38:32.357Z,30400.00
2019-04-06T07:39:32.378Z,26784.00
2019-04-06T07:40:32.398Z,28416.00
2019-04-06T07:41:32.420Z,32448.00
2019-04-06T07:42:32.439Z,33344.00
2019-04-06T07:43:32.461Z,33568.00
2019-04-06T07:44:32.482Z,34304.00
2019-04-06T07:45:32.502Z,34368.00
2019-04-06T07:46:32.716Z,35456.00
2019-04-06T07:47:32.546Z,35552.00
2019-04-06T07:48:32.570Z,35040.00
2019-04-06T07:49:32.588Z,35072.00
2019-04-06T07:50:32.611Z,35296.00
2019-04-06T07:51:32.631Z,35680.00
2019-04-06T07:52:32.656Z,36096.00
2019-04-06T07:53:32.709Z,29536.00
2019-04-06T07:54:32.702Z,16920.00
2019-04-06T07:55:32.782Z,12764.00
2019-04-06T07:56:32.743Z,12716.00
2019-04-06T07:57:32.763Z,12716.00
2019-04-06T07:58:32.787Z,12736.00
2019-04-06T07:59:32.807Z,12776.00
2019-04-06T08:00:32.831Z,12832.00
2019-04-06T08:01:32.853Z,12880.00
2019-04-06T08:02:32.875Z,12912.00
2019-04-06T08:03:32.900Z,12904.00
2019-04-06T08:04:32.919Z,12884.00
2019-04-06T08:05:32.940Z,12868.00
2019-04-06T08:06:32.960Z,12860.00
2019-04-06T08:07:32.982Z,12844.00
2019-04-06T08:08:33.004Z,12860.00
2019-04-06T08:09:33.029Z,12908.00
2019-04-06T08:10:33.050Z,12948.00
2019-04-06T08:11:33.067Z,12976.00
2019-04-06T08:12:33.299Z,12992.00
2019-04-06T08:13:33.110Z,12992.00
2019-04-06T08:14:33.135Z,12984.00
2019-04-06T08:15:33.153Z,12968.00
2019-04-06T08:16:33.208Z,12956.00
2019-04-06T08:17:33.265Z,12952.00
2019-04-06T08:18:33.275Z,12944.00
2019-04-06T08:19:33.270Z,12944.00
2019-04-06T08:20:33.323Z,12956.00
2019-04-06T08:21:33.327Z,12984.00
2019-04-06T08:22:33.334Z,12988.00
2019-04-06T08:23:33.326Z,13000.00
2019-04-06T08:24:33.345Z,12992.00
2019-04-06T08:25:33.559Z,13012.00
2019-04-06T08:26:33.407Z,13024.00
2019-04-06T08:27:33.407Z,13040.00
2019-04-06T08:28:33.674Z,13064.00
2019-04-06T08:29:33.461Z,13088.00
2019-04-06T08:30:44.196Z,13076.00
2019-04-06T08:31:33.491Z,13064.00
2019-04-06T08:32:33.515Z,13052.00
2019-04-06T08:33:33.536Z,13052.00
2019-04-06T08:34:33.559Z,13080.00
2019-04-06T08:35:33.682Z,13120.00
2019-04-06T08:36:33.598Z,13156.00
2019-04-06T08:37:33.624Z,13152.00
2019-04-06T08:38:33.668Z,13160.00
2019-04-06T08:39:33.662Z,13208.00
2019-04-06T08:40:33.682Z,13248.00
2019-04-06T08:41:33.707Z,13272.00
2019-04-06T08:42:33.726Z,13324.00
2019-04-06T08:43:33.744Z,13340.00
2019-04-06T08:44:33.768Z,13324.00
2019-04-06T08:45:33.792Z,13304.00
2019-04-06T08:46:33.818Z,13284.00
2019-04-06T08:47:33.834Z,13264.00
2019-04-06T08:48:33.851Z,13292.00
2019-04-06T08:49:33.873Z,13308.00
2019-04-06T08:50:33.897Z,13292.00
2019-04-06T08:51:33.915Z,13300.00
2019-04-06T08:52:33.935Z,13308.00
2019-04-06T08:53:33.960Z,13328.00
2019-04-06T08:54:34.034Z,13332.00
2019-04-06T08:55:34.007Z,13308.00
2019-04-06T08:56:34.248Z,13276.00
2019-04-06T08:57:34.043Z,13228.00
2019-04-06T08:58:34.066Z,13204.00
2019-04-06T08:59:34.091Z,13196.00
2019-04-06T09:00:34.108Z,13196.00
2019-04-06T09:01:34.347Z,13232.00
2019-04-06T09:02:34.222Z,13256.00
2019-04-06T09:03:34.169Z,13248.00
2019-04-06T09:04:34.192Z,13232.00
2019-04-06T09:05:34.490Z,13280.00
2019-04-06T09:06:34.235Z,13300.00
2019-04-06T09:07:34.255Z,13240.00
2019-04-06T09:08:34.491Z,13156.00
2019-04-06T09:09:34.322Z,13100.00
2019-04-06T09:10:34.321Z,13124.00
2019-04-06T09:11:34.343Z,13140.00
2019-04-06T09:12:34.372Z,13204.00
2019-04-06T09:13:34.455Z,13180.00
2019-04-06T09:14:34.407Z,13188.00
2019-04-06T09:15:34.472Z,13172.00
2019-04-06T09:16:34.448Z,13164.00
2019-04-06T09:17:34.468Z,13184.00
2019-04-06T09:18:34.492Z,13152.00
2019-04-06T09:19:34.511Z,13144.00
2019-04-06T09:20:34.534Z,13156.00
2019-04-06T09:21:34.556Z,13184.00
2019-04-06T09:22:34.577Z,13160.00
2019-04-06T09:23:34.789Z,13140.00
2019-04-06T09:24:34.620Z,13172.00
2019-04-06T09:25:34.641Z,13212.00
2019-04-06T09:26:34.662Z,13204.00
2019-04-06T09:27:34.684Z,13184.00
2019-04-06T09:28:34.706Z,13216.00
2019-04-06T09:29:34.728Z,13224.00
2019-04-06T09:30:34.924Z,13244.00
2019-04-06T09:31:34.770Z,13284.00
2019-04-06T09:32:34.803Z,13224.00
2019-04-06T09:33:34.814Z,13220.00
2019-04-06T09:34:34.836Z,13264.00
2019-04-06T09:35:34.865Z,13244.00
2019-04-06T09:36:35.121Z,13248.00
2019-04-06T09:37:34.902Z,13224.00
2019-04-06T09:38:34.925Z,13220.00
2019-04-06T09:39:34.992Z,13176.00
2019-04-06T09:40:34.967Z,13200.00
2019-04-06T09:41:34.990Z,13208.00
2019-04-06T09:42:35.257Z,13220.00
2019-04-06T09:43:35.035Z,13220.00
2019-04-06T09:44:35.297Z,13184.00
2019-04-06T09:45:35.100Z,13116.00
2019-04-06T09:46:35.410Z,13172.00
2019-04-06T09:47:35.169Z,13156.00
2019-04-06T09:48:35.223Z,13144.00
2019-04-06T09:49:35.223Z,13148.00
2019-04-06T09:50:35.221Z,13196.00
2019-04-06T09:51:35.217Z,13248.00
2019-04-06T09:52:35.233Z,13268.00
2019-04-06T09:53:35.299Z,13260.00
2019-04-06T09:54:35.582Z,13232.00
2019-04-06T09:55:35.297Z,13228.00
2019-04-06T09:56:35.326Z,13184.00
2019-04-06T09:57:35.352Z,13160.00
2019-04-06T09:58:35.367Z,13208.00
2019-04-06T09:59:37.120Z,13256.00
2019-04-06T10:00:35.412Z,13272.00
2019-04-06T10:01:38.937Z,13300.00
2019-04-06T10:02:35.676Z,13336.00
2019-04-06T10:03:35.479Z,13300.00
2019-04-06T10:04:35.501Z,13292.00
2019-04-06T10:05:35.523Z,13260.00
2019-04-06T10:06:35.546Z,13296.00
2019-04-06T10:07:35.570Z,13292.00
2019-04-06T10:08:35.591Z,13224.00
2019-04-06T10:09:35.862Z,13212.00
2019-04-06T10:10:35.990Z,13200.00
2019-04-06T10:11:35.658Z,13164.00
2019-04-06T10:12:35.689Z,13168.00
2019-04-06T10:13:35.706Z,13240.00
2019-04-06T10:14:35.729Z,13316.00
2019-04-06T10:15:35.952Z,13248.00
2019-04-06T10:16:35.960Z,13260.00
2019-04-06T10:17:35.794Z,13276.00
2019-04-06T10:18:35.818Z,13264.00
2019-04-06T10:19:35.839Z,13252.00
2019-04-06T10:20:36.127Z,13184.00
2019-04-06T10:21:35.887Z,13048.00
2019-04-06T10:22:35.913Z,12956.00
2019-04-06T10:23:35.944Z,13052.00
2019-04-06T10:24:35.956Z,13080.00
2019-04-06T10:25:35.978Z,12996.00
2019-04-06T10:26:36.024Z,12960.00
2019-04-06T10:27:36.023Z,12980.00
2019-04-06T10:28:36.046Z,13056.00
2019-04-06T10:29:47.687Z,13076.00
2019-04-06T10:30:36.095Z,13016.00
2019-04-06T10:31:36.114Z,12992.00
2019-04-06T10:32:36.140Z,12928.00
2019-04-06T10:33:36.315Z,12924.00
2019-04-06T10:34:36.185Z,12888.00
2019-04-06T10:35:36.541Z,12896.00
2019-04-06T10:36:36.231Z,13128.00
2019-04-06T10:37:36.255Z,13860.00
2019-04-06T10:38:36.278Z,28288.00
2019-04-06T10:39:36.493Z,34784.00
2019-04-06T10:40:36.324Z,28352.00
2019-04-06T10:41:36.355Z,40832.00
2019-04-06T10:42:36.372Z,54240.00
2019-04-06T10:43:36.395Z,50208.00
2019-04-06T10:44:36.482Z,33376.00
2019-04-06T10:45:36.446Z,30432.00
2019-04-06T10:46:36.472Z,45344.00
2019-04-06T10:47:36.804Z,54496.00
2019-04-06T10:48:36.518Z,41536.00
2019-04-06T10:49:36.843Z,23808.00
2019-04-06T10:50:36.573Z,16384.00
2019-04-06T10:51:36.639Z,31392.00
2019-04-06T10:52:36.623Z,49664.00
2019-04-06T10:53:36.649Z,57312.00
2019-04-06T10:54:36.676Z,57152.00
2019-04-06T10:55:36.701Z,58304.00
2019-04-06T10:56:36.733Z,59008.00
2019-04-06T10:57:36.755Z,59712.00
2019-04-06T10:58:36.838Z,59584.00
2019-04-06T10:59:36.811Z,58528.00
2019-04-06T11:00:36.841Z,59296.00
2019-04-06T11:01:36.867Z,59328.00
2019-04-06T11:02:36.895Z,57024.00
2019-04-06T11:03:36.928Z,57792.00
2019-04-06T11:04:37.144Z,60096.00
2019-04-06T11:05:37.067Z,61792.00
2019-04-06T11:06:37.162Z,63328.00
2019-04-06T11:07:37.125Z,62784.00
2019-04-06T11:08:37.182Z,61216.00
2019-04-06T11:09:37.239Z,60800.00
2019-04-06T11:10:37.137Z,60352.00
2019-04-06T11:11:37.169Z,60544.00
2019-04-06T11:12:37.201Z,61600.00
2019-04-06T11:13:37.243Z,59744.00
2019-04-06T11:14:37.274Z,52224.00
2019-04-06T11:15:37.299Z,43104.00
2019-04-06T11:16:37.329Z,31296.00
2019-04-06T11:17:37.360Z,20224.00
2019-04-06T11:18:37.407Z,13848.00
2019-04-06T11:19:37.423Z,12912.00
2019-04-06T11:20:37.518Z,12672.00
2019-04-06T11:21:37.487Z,12728.00
2019-04-06T11:22:37.520Z,12808.00
2019-04-06T11:23:37.592Z,12880.00
2019-04-06T11:24:37.585Z,12884.00
2019-04-06T11:25:37.612Z,12884.00
2019-04-06T11:26:37.637Z,12876.00
2019-04-06T11:27:37.706Z,12892.00
2019-04-06T11:28:37.703Z,12960.00
2019-04-06T11:29:37.725Z,13052.00
2019-04-06T11:30:37.762Z,13404.00
2019-04-06T11:31:37.982Z,15044.00
2019-04-06T11:32:37.814Z,29600.00
2019-04-06T11:33:37.841Z,48352.00
2019-04-06T11:34:37.870Z,57664.00
2019-04-06T11:35:38.051Z,58368.00
2019-04-06T11:36:37.926Z,58336.00
2019-04-06T11:37:37.958Z,57376.00
2019-04-06T11:38:37.999Z,56960.00
2019-04-06T11:39:38.096Z,56672.00
2019-04-06T11:40:38.041Z,56576.00
2019-04-06T11:41:38.069Z,58304.00
2019-04-06T11:42:38.287Z,58624.00
2019-04-06T11:43:38.124Z,57472.00
2019-04-06T11:44:38.243Z,59040.00
2019-04-06T11:45:38.350Z,60384.00
2019-04-06T11:46:38.219Z,59712.00
2019-04-06T11:47:38.246Z,58816.00
2019-04-06T11:48:38.609Z,58208.00
2019-04-06T11:49:38.332Z,60256.00
2019-04-06T11:50:38.340Z,62944.00
2019-04-06T11:51:38.628Z,62144.00
2019-04-06T11:52:38.401Z,58784.00
2019-04-06T11:53:38.449Z,56480.00
2019-04-06T11:54:38.584Z,55456.00
2019-04-06T11:55:38.496Z,56064.00
2019-04-06T11:56:38.529Z,56352.00
2019-04-06T11:57:38.562Z,57536.00
2019-04-06T11:58:38.594Z,56640.00
2019-04-06T11:59:38.625Z,56896.00
2019-04-06T12:00:38.661Z,55488.00
2019-04-06T12:01:38.694Z,55456.00
2019-04-06T12:02:38.728Z,52352.00
2019-04-06T12:03:38.762Z,47616.00
2019-04-06T12:04:38.793Z,38688.00
2019-04-06T12:05:38.827Z,28768.00
2019-04-06T12:06:38.862Z,20320.00
2019-04-06T12:07:38.895Z,14488.00
2019-04-06T12:08:39.280Z,12752.00
2019-04-06T12:09:39.001Z,12336.00
2019-04-06T12:10:39.057Z,12380.00
2019-04-06T12:11:39.044Z,12352.00
2019-04-06T12:12:39.056Z,12344.00
2019-04-06T12:13:39.086Z,12284.00
2019-04-06T12:14:39.116Z,12224.00
2019-04-06T12:15:39.149Z,12240.00
2019-04-06T12:16:39.178Z,12288.00
2019-04-06T12:17:39.209Z,12312.00
2019-04-06T12:18:39.244Z,12356.00
2019-04-06T12:19:39.266Z,12424.00